sensor_id;sensor_type;location;lat;lon;timestamp;P1;durP1;ratioP1;P2;durP2;ratioP2
62006;SDS011;47963;53.008;6.754;2022-11-03T00:01:55;18.08;;;3.88;;
62006;SDS011;47963;53.008;6.754;2022-11-03T00:04:21;14.85;;;3.47;;
62006;SDS011;47963;53.008;6.754;2022-11-03T00:06:48;13.88;;;3.78;;
62006;SDS011;47963;53.008;6.754;2022-11-03T00:09:17;14.90;;;3.92;;
62006;SDS011;47963;53.008;6.754;2022-11-03T00:11:44;16.08;;;3.40;;
62006;SDS011;47963;53.008;6.754;2022-11-03T00:14:11;16.38;;;4.18;;
62006;SDS011;47963;53.008;6.754;2022-11-03T00:16:39;17.05;;;3.42;;
62006;SDS011;47963;53.008;6.754;2022-11-03T00:19:05;15.13;;;3.63;;
62006;SDS011;47963;53.008;6.754;2022-11-03T00:21:31;17.65;;;4.40;;
62006;SDS011;47963;53.008;6.754;2022-11-03T00:23:57;18.02;;;4.35;;
62006;SDS011;47963;53.008;6.754;2022-11-03T00:26:23;14.07;;;3.42;;
62006;SDS011;47963;53.008;6.754;2022-11-03T00:28:51;14.85;;;3.50;;
62006;SDS011;47963;53.008;6.754;2022-11-03T00:31:20;15.93;;;3.90;;
62006;SDS011;47963;53.008;6.754;2022-11-03T00:33:47;17.85;;;4.10;;
62006;SDS011;47963;53.008;6.754;2022-11-03T00:36:14;15.07;;;3.67;;
62006;SDS011;47963;53.008;6.754;2022-11-03T00:38:44;17.27;;;3.75;;
62006;SDS011;47963;53.008;6.754;2022-11-03T00:41:10;15.23;;;4.18;;
62006;SDS011;47963;53.008;6.754;2022-11-03T00:43:37;16.42;;;3.58;;
62006;SDS011;47963;53.008;6.754;2022-11-03T00:46:04;14.82;;;4.07;;
62006;SDS011;47963;53.008;6.754;2022-11-03T00:48:30;15.35;;;3.50;;
62006;SDS011;47963;53.008;6.754;2022-11-03T00:53:39;17.23;;;3.72;;
62006;SDS011;47963;53.008;6.754;2022-11-03T00:56:06;17.05;;;3.80;;
62006;SDS011;47963;53.008;6.754;2022-11-03T00:58:35;18.30;;;4.43;;
62006;SDS011;47963;53.008;6.754;2022-11-03T01:01:09;15.48;;;3.90;;
62006;SDS011;47963;53.008;6.754;2022-11-03T01:03:39;16.85;;;4.00;;
62006;SDS011;47963;53.008;6.754;2022-11-03T01:06:06;18.85;;;4.13;;
62006;SDS011;47963;53.008;6.754;2022-11-03T01:08:51;18.73;;;4.45;;
62006;SDS011;47963;53.008;6.754;2022-11-03T01:11:19;16.63;;;3.90;;
62006;SDS011;47963;53.008;6.754;2022-11-03T01:14:05;17.65;;;3.97;;
62006;SDS011;47963;53.008;6.754;2022-11-03T01:16:31;16.88;;;3.95;;
62006;SDS011;47963;53.008;6.754;2022-11-03T01:18:57;17.92;;;3.80;;
62006;SDS011;47963;53.008;6.754;2022-11-03T01:21:23;18.45;;;3.83;;
62006;SDS011;47963;53.008;6.754;2022-11-03T01:23:49;17.27;;;3.90;;
62006;SDS011;47963;53.008;6.754;2022-11-03T01:26:15;19.85;;;4.68;;
62006;SDS011;47963;53.008;6.754;2022-11-03T01:28:42;15.60;;;4.43;;
62006;SDS011;47963;53.008;6.754;2022-11-03T01:31:10;18.35;;;3.92;;
62006;SDS011;47963;53.008;6.754;2022-11-03T01:33:38;18.75;;;4.25;;
62006;SDS011;47963;53.008;6.754;2022-11-03T01:36:04;17.48;;;3.70;;
62006;SDS011;47963;53.008;6.754;2022-11-03T01:38:32;17.35;;;4.00;;
62006;SDS011;47963;53.008;6.754;2022-11-03T01:41:02;18.52;;;4.63;;
62006;SDS011;47963;53.008;6.754;2022-11-03T01:43:29;19.50;;;3.90;;
62006;SDS011;47963;53.008;6.754;2022-11-03T01:48:48;17.10;;;3.80;;
62006;SDS011;47963;53.008;6.754;2022-11-03T01:51:21;17.73;;;3.95;;
62006;SDS011;47963;53.008;6.754;2022-11-03T01:53:49;17.63;;;4.13;;
62006;SDS011;47963;53.008;6.754;2022-11-03T01:56:18;17.40;;;4.22;;
62006;SDS011;47963;53.008;6.754;2022-11-03T01:58:45;16.08;;;3.58;;
62006;SDS011;47963;53.008;6.754;2022-11-03T02:01:13;16.38;;;3.95;;
62006;SDS011;47963;53.008;6.754;2022-11-03T02:04:01;15.85;;;4.05;;
62006;SDS011;47963;53.008;6.754;2022-11-03T02:06:31;17.40;;;3.83;;
62006;SDS011;47963;53.008;6.754;2022-11-03T02:09:07;17.40;;;3.78;;
62006;SDS011;47963;53.008;6.754;2022-11-03T02:11:35;16.83;;;3.90;;
62006;SDS011;47963;53.008;6.754;2022-11-03T02:14:20;15.18;;;3.80;;
62006;SDS011;47963;53.008;6.754;2022-11-03T02:16:53;16.60;;;4.57;;
62006;SDS011;47963;53.008;6.754;2022-11-03T02:22:25;15.15;;;3.90;;
62006;SDS011;47963;53.008;6.754;2022-11-03T02:28:05;17.55;;;3.90;;
62006;SDS011;47963;53.008;6.754;2022-11-03T02:30:35;19.42;;;4.20;;
62006;SDS011;47963;53.008;6.754;2022-11-03T02:38:49;17.05;;;4.20;;
62006;SDS011;47963;53.008;6.754;2022-11-03T02:41:28;18.35;;;4.07;;
62006;SDS011;47963;53.008;6.754;2022-11-03T02:43:57;17.15;;;3.90;;
62006;SDS011;47963;53.008;6.754;2022-11-03T02:46:24;18.67;;;4.05;;
62006;SDS011;47963;53.008;6.754;2022-11-03T02:48:51;16.77;;;4.40;;
62006;SDS011;47963;53.008;6.754;2022-11-03T02:51:17;16.48;;;3.95;;
62006;SDS011;47963;53.008;6.754;2022-11-03T02:53:50;14.45;;;3.70;;
62006;SDS011;47963;53.008;6.754;2022-11-03T02:59:05;17.63;;;4.00;;
62006;SDS011;47963;53.008;6.754;2022-11-03T03:01:40;17.92;;;4.25;;
62006;SDS011;47963;53.008;6.754;2022-11-03T03:04:35;15.93;;;3.67;;
62006;SDS011;47963;53.008;6.754;2022-11-03T03:07:05;15.15;;;4.38;;
62006;SDS011;47963;53.008;6.754;2022-11-03T03:09:38;17.02;;;4.35;;
62006;SDS011;47963;53.008;6.754;2022-11-03T03:12:09;19.17;;;4.03;;
62006;SDS011;47963;53.008;6.754;2022-11-03T03:14:37;17.92;;;4.28;;
62006;SDS011;47963;53.008;6.754;2022-11-03T03:17:11;16.27;;;3.60;;
62006;SDS011;47963;53.008;6.754;2022-11-03T03:19:49;16.90;;;4.03;;
62006;SDS011;47963;53.008;6.754;2022-11-03T03:22:22;16.92;;;4.07;;
62006;SDS011;47963;53.008;6.754;2022-11-03T03:25:25;16.35;;;4.03;;
62006;SDS011;47963;53.008;6.754;2022-11-03T03:30:34;15.98;;;3.80;;
62006;SDS011;47963;53.008;6.754;2022-11-03T03:33:03;18.15;;;4.18;;
62006;SDS011;47963;53.008;6.754;2022-11-03T03:35:31;16.88;;;4.30;;
62006;SDS011;47963;53.008;6.754;2022-11-03T03:38:03;19.52;;;4.18;;
62006;SDS011;47963;53.008;6.754;2022-11-03T03:40:35;15.02;;;4.30;;
62006;SDS011;47963;53.008;6.754;2022-11-03T03:43:03;21.80;;;4.68;;
62006;SDS011;47963;53.008;6.754;2022-11-03T03:45:32;17.00;;;4.18;;
62006;SDS011;47963;53.008;6.754;2022-11-03T03:48:00;20.75;;;4.80;;
62006;SDS011;47963;53.008;6.754;2022-11-03T03:50:28;18.35;;;4.22;;
62006;SDS011;47963;53.008;6.754;2022-11-03T03:53:01;16.17;;;4.00;;
62006;SDS011;47963;53.008;6.754;2022-11-03T03:55:39;17.17;;;4.35;;
62006;SDS011;47963;53.008;6.754;2022-11-03T03:58:07;19.00;;;4.32;;
62006;SDS011;47963;53.008;6.754;2022-11-03T04:00:37;19.17;;;4.05;;
62006;SDS011;47963;53.008;6.754;2022-11-03T04:03:04;16.25;;;4.60;;
62006;SDS011;47963;53.008;6.754;2022-11-03T04:05:31;16.33;;;3.88;;
62006;SDS011;47963;53.008;6.754;2022-11-03T04:07:56;16.92;;;4.45;;
62006;SDS011;47963;53.008;6.754;2022-11-03T04:10:22;16.08;;;4.03;;
62006;SDS011;47963;53.008;6.754;2022-11-03T04:12:49;17.10;;;4.20;;
62006;SDS011;47963;53.008;6.754;2022-11-03T04:15:33;16.58;;;4.28;;
62006;SDS011;47963;53.008;6.754;2022-11-03T04:18:18;17.92;;;4.40;;
62006;SDS011;47963;53.008;6.754;2022-11-03T04:21:03;14.85;;;4.28;;
62006;SDS011;47963;53.008;6.754;2022-11-03T04:23:48;19.02;;;4.07;;
62006;SDS011;47963;53.008;6.754;2022-11-03T04:26:17;17.48;;;4.18;;
62006;SDS011;47963;53.008;6.754;2022-11-03T04:28:48;18.75;;;4.10;;
62006;SDS011;47963;53.008;6.754;2022-11-03T04:31:15;17.73;;;4.88;;
62006;SDS011;47963;53.008;6.754;2022-11-03T04:33:42;16.38;;;4.20;;
62006;SDS011;47963;53.008;6.754;2022-11-03T04:36:09;16.02;;;4.20;;
62006;SDS011;47963;53.008;6.754;2022-11-03T04:38:44;14.98;;;3.92;;
62006;SDS011;47963;53.008;6.754;2022-11-03T04:41:17;17.75;;;4.50;;
62006;SDS011;47963;53.008;6.754;2022-11-03T04:43:48;16.25;;;4.30;;
62006;SDS011;47963;53.008;6.754;2022-11-03T04:46:15;17.85;;;4.60;;
62006;SDS011;47963;53.008;6.754;2022-11-03T04:48:47;15.80;;;4.20;;
62006;SDS011;47963;53.008;6.754;2022-11-03T04:51:14;13.82;;;3.90;;
62006;SDS011;47963;53.008;6.754;2022-11-03T04:53:49;21.25;;;4.18;;
62006;SDS011;47963;53.008;6.754;2022-11-03T04:56:28;16.52;;;4.15;;
62006;SDS011;47963;53.008;6.754;2022-11-03T04:58:54;18.13;;;4.28;;
62006;SDS011;47963;53.008;6.754;2022-11-03T05:01:22;19.00;;;4.78;;
62006;SDS011;47963;53.008;6.754;2022-11-03T05:03:49;17.67;;;4.55;;
62006;SDS011;47963;53.008;6.754;2022-11-03T05:06:20;18.05;;;4.53;;
62006;SDS011;47963;53.008;6.754;2022-11-03T05:09:22;16.80;;;4.75;;
62006;SDS011;47963;53.008;6.754;2022-11-03T05:11:42;18.80;;;4.47;;
62006;SDS011;47963;53.008;6.754;2022-11-03T05:14:17;17.15;;;4.55;;
62006;SDS011;47963;53.008;6.754;2022-11-03T05:16:46;17.00;;;4.43;;
62006;SDS011;47963;53.008;6.754;2022-11-03T05:19:35;16.02;;;4.00;;
62006;SDS011;47963;53.008;6.754;2022-11-03T05:22:02;17.25;;;4.22;;
62006;SDS011;47963;53.008;6.754;2022-11-03T05:24:29;18.90;;;4.43;;
62006;SDS011;47963;53.008;6.754;2022-11-03T05:26:56;18.67;;;4.45;;
62006;SDS011;47963;53.008;6.754;2022-11-03T05:31:51;18.58;;;4.22;;
62006;SDS011;47963;53.008;6.754;2022-11-03T05:39:42;18.20;;;4.20;;
62006;SDS011;47963;53.008;6.754;2022-11-03T05:44:50;16.85;;;4.57;;
62006;SDS011;47963;53.008;6.754;2022-11-03T05:47:21;19.17;;;4.47;;
62006;SDS011;47963;53.008;6.754;2022-11-03T05:49:48;16.60;;;4.25;;
62006;SDS011;47963;53.008;6.754;2022-11-03T05:52:21;14.60;;;3.92;;
62006;SDS011;47963;53.008;6.754;2022-11-03T05:54:50;17.05;;;4.20;;
62006;SDS011;47963;53.008;6.754;2022-11-03T05:57:17;16.42;;;3.90;;
62006;SDS011;47963;53.008;6.754;2022-11-03T05:59:44;22.35;;;5.28;;
62006;SDS011;47963;53.008;6.754;2022-11-03T06:05:14;16.40;;;4.45;;
62006;SDS011;47963;53.008;6.754;2022-11-03T06:07:44;16.65;;;4.82;;
62006;SDS011;47963;53.008;6.754;2022-11-03T06:13:12;19.00;;;4.80;;
62006;SDS011;47963;53.008;6.754;2022-11-03T06:15:41;18.27;;;4.85;;
62006;SDS011;47963;53.008;6.754;2022-11-03T06:18:18;15.23;;;5.00;;
62006;SDS011;47963;53.008;6.754;2022-11-03T06:20:51;20.70;;;5.30;;
62006;SDS011;47963;53.008;6.754;2022-11-03T06:23:26;16.48;;;4.68;;
62006;SDS011;47963;53.008;6.754;2022-11-03T06:25:52;18.27;;;4.97;;
62006;SDS011;47963;53.008;6.754;2022-11-03T06:28:21;17.98;;;4.93;;
62006;SDS011;47963;53.008;6.754;2022-11-03T06:30:52;15.77;;;4.80;;
62006;SDS011;47963;53.008;6.754;2022-11-03T06:33:18;16.95;;;4.57;;
62006;SDS011;47963;53.008;6.754;2022-11-03T06:35:49;17.67;;;4.22;;
62006;SDS011;47963;53.008;6.754;2022-11-03T06:38:18;15.88;;;4.20;;
62006;SDS011;47963;53.008;6.754;2022-11-03T06:40:48;17.33;;;4.85;;
62006;SDS011;47963;53.008;6.754;2022-11-03T06:43:19;16.00;;;4.53;;
62006;SDS011;47963;53.008;6.754;2022-11-03T06:45:58;21.13;;;5.07;;
62006;SDS011;47963;53.008;6.754;2022-11-03T06:48:29;15.02;;;4.30;;
62006;SDS011;47963;53.008;6.754;2022-11-03T06:50:58;20.73;;;5.22;;
62006;SDS011;47963;53.008;6.754;2022-11-03T06:53:30;13.88;;;4.47;;
62006;SDS011;47963;53.008;6.754;2022-11-03T06:55:57;21.35;;;5.10;;
62006;SDS011;47963;53.008;6.754;2022-11-03T07:00:57;19.02;;;4.68;;
62006;SDS011;47963;53.008;6.754;2022-11-03T07:03:26;16.77;;;4.65;;
62006;SDS011;47963;53.008;6.754;2022-11-03T07:06:23;20.83;;;4.90;;
62006;SDS011;47963;53.008;6.754;2022-11-03T07:08:50;19.15;;;4.90;;
62006;SDS011;47963;53.008;6.754;2022-11-03T07:14:11;16.33;;;4.85;;
62006;SDS011;47963;53.008;6.754;2022-11-03T07:16:41;19.42;;;4.88;;
62006;SDS011;47963;53.008;6.754;2022-11-03T07:19:12;18.65;;;5.15;;
62006;SDS011;47963;53.008;6.754;2022-11-03T07:21:53;21.08;;;4.75;;
62006;SDS011;47963;53.008;6.754;2022-11-03T07:29:57;19.67;;;5.00;;
62006;SDS011;47963;53.008;6.754;2022-11-03T07:32:27;18.65;;;4.93;;
62006;SDS011;47963;53.008;6.754;2022-11-03T07:37:46;18.50;;;5.20;;
62006;SDS011;47963;53.008;6.754;2022-11-03T07:40:15;18.00;;;5.03;;
62006;SDS011;47963;53.008;6.754;2022-11-03T07:42:45;17.45;;;4.85;;
62006;SDS011;47963;53.008;6.754;2022-11-03T07:47:57;18.33;;;4.97;;
62006;SDS011;47963;53.008;6.754;2022-11-03T07:50:24;19.23;;;5.32;;
62006;SDS011;47963;53.008;6.754;2022-11-03T07:52:49;17.17;;;4.50;;
62006;SDS011;47963;53.008;6.754;2022-11-03T07:55:15;17.23;;;4.78;;
62006;SDS011;47963;53.008;6.754;2022-11-03T07:57:41;16.38;;;5.75;;
62006;SDS011;47963;53.008;6.754;2022-11-03T08:00:08;20.33;;;4.95;;
62006;SDS011;47963;53.008;6.754;2022-11-03T08:02:49;17.67;;;4.82;;
62006;SDS011;47963;53.008;6.754;2022-11-03T08:05:19;20.15;;;4.95;;
62006;SDS011;47963;53.008;6.754;2022-11-03T08:07:44;18.10;;;5.05;;
62006;SDS011;47963;53.008;6.754;2022-11-03T08:10:10;22.15;;;5.35;;
62006;SDS011;47963;53.008;6.754;2022-11-03T08:12:35;17.45;;;5.50;;
62006;SDS011;47963;53.008;6.754;2022-11-03T08:15:01;17.38;;;5.00;;
62006;SDS011;47963;53.008;6.754;2022-11-03T08:17:27;19.63;;;4.85;;
62006;SDS011;47963;53.008;6.754;2022-11-03T08:19:52;24.88;;;5.88;;
62006;SDS011;47963;53.008;6.754;2022-11-03T08:22:18;20.40;;;5.22;;
62006;SDS011;47963;53.008;6.754;2022-11-03T08:24:44;17.55;;;4.80;;
62006;SDS011;47963;53.008;6.754;2022-11-03T08:27:09;22.15;;;4.85;;
62006;SDS011;47963;53.008;6.754;2022-11-03T08:29:35;18.88;;;5.05;;
62006;SDS011;47963;53.008;6.754;2022-11-03T08:32:00;20.67;;;5.80;;
62006;SDS011;47963;53.008;6.754;2022-11-03T08:34:26;20.45;;;5.78;;
62006;SDS011;47963;53.008;6.754;2022-11-03T08:36:52;19.27;;;5.20;;
62006;SDS011;47963;53.008;6.754;2022-11-03T08:39:17;23.23;;;6.25;;
62006;SDS011;47963;53.008;6.754;2022-11-03T08:41:43;20.27;;;5.43;;
62006;SDS011;47963;53.008;6.754;2022-11-03T08:44:08;21.02;;;5.35;;
62006;SDS011;47963;53.008;6.754;2022-11-03T08:46:34;18.80;;;5.25;;
62006;SDS011;47963;53.008;6.754;2022-11-03T08:49:00;20.45;;;5.75;;
62006;SDS011;47963;53.008;6.754;2022-11-03T08:51:26;21.73;;;5.70;;
62006;SDS011;47963;53.008;6.754;2022-11-03T08:53:52;17.02;;;4.95;;
62006;SDS011;47963;53.008;6.754;2022-11-03T08:56:19;21.98;;;5.38;;
62006;SDS011;47963;53.008;6.754;2022-11-03T08:58:45;19.40;;;5.20;;
62006;SDS011;47963;53.008;6.754;2022-11-03T09:01:12;18.63;;;5.03;;
62006;SDS011;47963;53.008;6.754;2022-11-03T09:03:38;19.50;;;5.53;;
62006;SDS011;47963;53.008;6.754;2022-11-03T09:06:04;23.52;;;5.60;;
62006;SDS011;47963;53.008;6.754;2022-11-03T09:08:31;22.15;;;5.75;;
62006;SDS011;47963;53.008;6.754;2022-11-03T09:10:56;22.83;;;5.38;;
62006;SDS011;47963;53.008;6.754;2022-11-03T09:13:22;22.73;;;5.10;;
62006;SDS011;47963;53.008;6.754;2022-11-03T09:15:48;19.85;;;5.30;;
62006;SDS011;47963;53.008;6.754;2022-11-03T09:18:13;19.95;;;5.10;;
62006;SDS011;47963;53.008;6.754;2022-11-03T09:20:40;19.38;;;5.75;;
62006;SDS011;47963;53.008;6.754;2022-11-03T09:23:05;23.33;;;5.78;;
62006;SDS011;47963;53.008;6.754;2022-11-03T09:25:31;22.85;;;6.55;;
62006;SDS011;47963;53.008;6.754;2022-11-03T09:27:57;23.52;;;5.32;;
62006;SDS011;47963;53.008;6.754;2022-11-03T09:30:25;23.00;;;5.50;;
62006;SDS011;47963;53.008;6.754;2022-11-03T09:32:51;20.50;;;5.32;;
62006;SDS011;47963;53.008;6.754;2022-11-03T09:35:16;18.45;;;5.47;;
62006;SDS011;47963;53.008;6.754;2022-11-03T09:37:42;20.35;;;5.57;;
62006;SDS011;47963;53.008;6.754;2022-11-03T09:40:09;21.20;;;5.72;;
62006;SDS011;47963;53.008;6.754;2022-11-03T09:42:37;21.73;;;5.60;;
62006;SDS011;47963;53.008;6.754;2022-11-03T09:45:03;21.88;;;5.88;;
62006;SDS011;47963;53.008;6.754;2022-11-03T09:47:32;19.92;;;5.68;;
62006;SDS011;47963;53.008;6.754;2022-11-03T09:50:00;19.77;;;5.15;;
62006;SDS011;47963;53.008;6.754;2022-11-03T09:52:26;20.75;;;5.60;;
62006;SDS011;47963;53.008;6.754;2022-11-03T09:54:52;24.90;;;6.13;;
62006;SDS011;47963;53.008;6.754;2022-11-03T09:57:22;23.33;;;5.43;;
62006;SDS011;47963;53.008;6.754;2022-11-03T09:59:50;19.02;;;5.28;;
62006;SDS011;47963;53.008;6.754;2022-11-03T10:02:19;20.45;;;5.60;;
62006;SDS011;47963;53.008;6.754;2022-11-03T10:04:49;20.00;;;5.40;;
62006;SDS011;47963;53.008;6.754;2022-11-03T10:07:16;21.70;;;5.15;;
62006;SDS011;47963;53.008;6.754;2022-11-03T10:09:46;22.00;;;5.32;;
62006;SDS011;47963;53.008;6.754;2022-11-03T10:12:14;18.02;;;5.45;;
62006;SDS011;47963;53.008;6.754;2022-11-03T10:14:40;20.58;;;5.32;;
62006;SDS011;47963;53.008;6.754;2022-11-03T10:17:08;21.42;;;5.10;;
62006;SDS011;47963;53.008;6.754;2022-11-03T10:19:40;24.05;;;5.25;;
62006;SDS011;47963;53.008;6.754;2022-11-03T10:22:06;22.27;;;5.28;;
62006;SDS011;47963;53.008;6.754;2022-11-03T10:24:32;19.05;;;5.05;;
62006;SDS011;47963;53.008;6.754;2022-11-03T10:26:58;18.65;;;5.28;;
62006;SDS011;47963;53.008;6.754;2022-11-03T10:29:24;20.42;;;4.93;;
62006;SDS011;47963;53.008;6.754;2022-11-03T10:31:52;19.40;;;5.45;;
62006;SDS011;47963;53.008;6.754;2022-11-03T10:37:16;19.60;;;5.28;;
62006;SDS011;47963;53.008;6.754;2022-11-03T10:39:52;23.83;;;5.53;;
62006;SDS011;47963;53.008;6.754;2022-11-03T10:42:23;20.48;;;4.90;;
62006;SDS011;47963;53.008;6.754;2022-11-03T10:44:54;18.85;;;4.85;;
62006;SDS011;47963;53.008;6.754;2022-11-03T10:47:35;22.90;;;5.63;;
62006;SDS011;47963;53.008;6.754;2022-11-03T10:50:07;18.58;;;5.13;;
62006;SDS011;47963;53.008;6.754;2022-11-03T10:52:47;18.92;;;5.10;;
62006;SDS011;47963;53.008;6.754;2022-11-03T10:55:14;18.27;;;5.15;;
62006;SDS011;47963;53.008;6.754;2022-11-03T10:57:39;17.15;;;5.15;;
62006;SDS011;47963;53.008;6.754;2022-11-03T11:00:06;16.55;;;4.82;;
62006;SDS011;47963;53.008;6.754;2022-11-03T11:02:36;21.13;;;5.55;;
62006;SDS011;47963;53.008;6.754;2022-11-03T11:05:19;19.90;;;4.93;;
62006;SDS011;47963;53.008;6.754;2022-11-03T11:07:46;17.77;;;4.90;;
62006;SDS011;47963;53.008;6.754;2022-11-03T11:10:16;17.50;;;5.13;;
62006;SDS011;47963;53.008;6.754;2022-11-03T11:13:02;19.55;;;4.95;;
62006;SDS011;47963;53.008;6.754;2022-11-03T11:15:56;17.90;;;4.90;;
62006;SDS011;47963;53.008;6.754;2022-11-03T11:20:51;17.45;;;4.38;;
62006;SDS011;47963;53.008;6.754;2022-11-03T11:28:33;15.27;;;4.53;;
62006;SDS011;47963;53.008;6.754;2022-11-03T11:31:48;16.20;;;4.30;;
62006;SDS011;47963;53.008;6.754;2022-11-03T11:36:35;17.17;;;5.30;;
62006;SDS011;47963;53.008;6.754;2022-11-03T11:39:02;18.60;;;5.47;;
62006;SDS011;47963;53.008;6.754;2022-11-03T11:49:47;18.52;;;4.82;;
62006;SDS011;47963;53.008;6.754;2022-11-03T11:52:13;15.82;;;4.30;;
62006;SDS011;47963;53.008;6.754;2022-11-03T11:54:42;21.67;;;5.28;;
62006;SDS011;47963;53.008;6.754;2022-11-03T11:57:17;15.57;;;4.20;;
62006;SDS011;47963;53.008;6.754;2022-11-03T11:59:45;16.40;;;4.50;;
62006;SDS011;47963;53.008;6.754;2022-11-03T12:02:18;18.63;;;4.45;;
62006;SDS011;47963;53.008;6.754;2022-11-03T12:04:48;15.25;;;4.10;;
62006;SDS011;47963;53.008;6.754;2022-11-03T12:07:33;16.42;;;4.38;;
62006;SDS011;47963;53.008;6.754;2022-11-03T12:12:55;18.52;;;4.68;;
62006;SDS011;47963;53.008;6.754;2022-11-03T12:18:37;17.52;;;4.32;;
62006;SDS011;47963;53.008;6.754;2022-11-03T12:21:05;18.75;;;4.63;;
62006;SDS011;47963;53.008;6.754;2022-11-03T12:23:51;18.00;;;4.40;;
62006;SDS011;47963;53.008;6.754;2022-11-03T12:26:17;16.75;;;4.45;;
62006;SDS011;47963;53.008;6.754;2022-11-03T12:29:05;18.55;;;4.47;;
62006;SDS011;47963;53.008;6.754;2022-11-03T12:31:31;19.70;;;5.22;;
62006;SDS011;47963;53.008;6.754;2022-11-03T12:33:57;14.80;;;4.00;;
62006;SDS011;47963;53.008;6.754;2022-11-03T12:36:22;13.45;;;3.70;;
62006;SDS011;47963;53.008;6.754;2022-11-03T12:38:48;18.58;;;4.38;;
62006;SDS011;47963;53.008;6.754;2022-11-03T12:41:13;17.13;;;4.20;;
62006;SDS011;47963;53.008;6.754;2022-11-03T12:43:46;13.27;;;4.10;;
62006;SDS011;47963;53.008;6.754;2022-11-03T12:46:13;17.83;;;4.10;;
62006;SDS011;47963;53.008;6.754;2022-11-03T12:48:40;16.88;;;3.70;;
62006;SDS011;47963;53.008;6.754;2022-11-03T12:51:15;15.90;;;4.22;;
62006;SDS011;47963;53.008;6.754;2022-11-03T12:53:41;15.43;;;3.97;;
62006;SDS011;47963;53.008;6.754;2022-11-03T12:56:08;14.60;;;4.10;;
62006;SDS011;47963;53.008;6.754;2022-11-03T12:58:34;16.73;;;4.45;;
62006;SDS011;47963;53.008;6.754;2022-11-03T13:01:01;14.30;;;3.45;;
62006;SDS011;47963;53.008;6.754;2022-11-03T13:03:27;14.45;;;3.63;;
62006;SDS011;47963;53.008;6.754;2022-11-03T13:05:53;14.18;;;4.03;;
62006;SDS011;47963;53.008;6.754;2022-11-03T13:08:19;14.05;;;3.67;;
62006;SDS011;47963;53.008;6.754;2022-11-03T13:10:45;12.43;;;3.63;;
62006;SDS011;47963;53.008;6.754;2022-11-03T13:13:11;15.27;;;3.90;;
62006;SDS011;47963;53.008;6.754;2022-11-03T13:15:37;13.45;;;3.70;;
62006;SDS011;47963;53.008;6.754;2022-11-03T13:18:02;17.45;;;3.78;;
62006;SDS011;47963;53.008;6.754;2022-11-03T13:20:29;12.60;;;3.88;;
62006;SDS011;47963;53.008;6.754;2022-11-03T13:22:59;12.35;;;3.63;;
62006;SDS011;47963;53.008;6.754;2022-11-03T13:25:25;12.35;;;3.33;;
62006;SDS011;47963;53.008;6.754;2022-11-03T13:27:52;14.68;;;4.05;;
62006;SDS011;47963;53.008;6.754;2022-11-03T13:30:19;15.27;;;3.88;;
62006;SDS011;47963;53.008;6.754;2022-11-03T13:32:46;12.50;;;3.30;;
62006;SDS011;47963;53.008;6.754;2022-11-03T13:35:11;11.05;;;3.80;;
62006;SDS011;47963;53.008;6.754;2022-11-03T13:37:38;13.10;;;3.47;;
62006;SDS011;47963;53.008;6.754;2022-11-03T13:40:04;15.68;;;3.72;;
62006;SDS011;47963;53.008;6.754;2022-11-03T13:42:30;15.57;;;4.22;;
62006;SDS011;47963;53.008;6.754;2022-11-03T13:44:56;14.30;;;3.60;;
62006;SDS011;47963;53.008;6.754;2022-11-03T13:47:22;13.00;;;3.30;;
62006;SDS011;47963;53.008;6.754;2022-11-03T13:49:47;11.52;;;3.45;;
62006;SDS011;47963;53.008;6.754;2022-11-03T13:52:19;13.90;;;3.53;;
62006;SDS011;47963;53.008;6.754;2022-11-03T13:54:45;13.93;;;3.35;;
62006;SDS011;47963;53.008;6.754;2022-11-03T13:57:11;13.50;;;3.63;;
62006;SDS011;47963;53.008;6.754;2022-11-03T13:59:37;12.63;;;3.50;;
62006;SDS011;47963;53.008;6.754;2022-11-03T14:02:03;13.43;;;3.40;;
62006;SDS011;47963;53.008;6.754;2022-11-03T14:04:30;12.60;;;3.03;;
62006;SDS011;47963;53.008;6.754;2022-11-03T14:06:56;13.38;;;3.22;;
62006;SDS011;47963;53.008;6.754;2022-11-03T14:09:22;12.73;;;3.00;;
62006;SDS011;47963;53.008;6.754;2022-11-03T14:11:48;15.32;;;3.50;;
62006;SDS011;47963;53.008;6.754;2022-11-03T14:14:32;13.60;;;3.33;;
62006;SDS011;47963;53.008;6.754;2022-11-03T14:16:58;14.02;;;3.50;;
62006;SDS011;47963;53.008;6.754;2022-11-03T14:19:24;13.35;;;3.45;;
62006;SDS011;47963;53.008;6.754;2022-11-03T14:21:49;14.02;;;3.38;;
62006;SDS011;47963;53.008;6.754;2022-11-03T14:24:15;11.57;;;3.28;;
62006;SDS011;47963;53.008;6.754;2022-11-03T14:26:41;14.95;;;3.22;;
62006;SDS011;47963;53.008;6.754;2022-11-03T14:29:07;10.63;;;2.92;;
62006;SDS011;47963;53.008;6.754;2022-11-03T14:31:32;13.10;;;3.20;;
62006;SDS011;47963;53.008;6.754;2022-11-03T14:33:58;11.93;;;3.05;;
62006;SDS011;47963;53.008;6.754;2022-11-03T14:36:24;10.75;;;3.30;;
62006;SDS011;47963;53.008;6.754;2022-11-03T14:38:50;19.83;;;3.20;;
62006;SDS011;47963;53.008;6.754;2022-11-03T14:41:16;11.63;;;3.30;;
62006;SDS011;47963;53.008;6.754;2022-11-03T14:44:00;13.05;;;3.38;;
62006;SDS011;47963;53.008;6.754;2022-11-03T14:46:29;12.05;;;3.50;;
62006;SDS011;47963;53.008;6.754;2022-11-03T14:48:55;10.35;;;3.13;;
62006;SDS011;47963;53.008;6.754;2022-11-03T14:51:20;14.18;;;3.15;;
62006;SDS011;47963;53.008;6.754;2022-11-03T14:53:46;12.77;;;2.90;;
62006;SDS011;47963;53.008;6.754;2022-11-03T14:56:11;11.90;;;2.90;;
62006;SDS011;47963;53.008;6.754;2022-11-03T14:58:37;12.07;;;2.92;;
62006;SDS011;47963;53.008;6.754;2022-11-03T15:01:03;10.93;;;3.10;;
62006;SDS011;47963;53.008;6.754;2022-11-03T15:03:29;14.45;;;4.13;;
62006;SDS011;47963;53.008;6.754;2022-11-03T15:05:55;13.52;;;3.50;;
62006;SDS011;47963;53.008;6.754;2022-11-03T15:08:21;12.85;;;3.03;;
62006;SDS011;47963;53.008;6.754;2022-11-03T15:10:47;10.15;;;2.80;;
62006;SDS011;47963;53.008;6.754;2022-11-03T15:13:14;11.00;;;2.92;;
62006;SDS011;47963;53.008;6.754;2022-11-03T15:15:39;12.23;;;3.55;;
62006;SDS011;47963;53.008;6.754;2022-11-03T15:18:06;13.55;;;3.63;;
62006;SDS011;47963;53.008;6.754;2022-11-03T15:20:32;14.43;;;4.00;;
62006;SDS011;47963;53.008;6.754;2022-11-03T15:23:03;11.65;;;3.45;;
62006;SDS011;47963;53.008;6.754;2022-11-03T15:25:30;13.35;;;3.65;;
62006;SDS011;47963;53.008;6.754;2022-11-03T15:27:56;12.95;;;3.40;;
62006;SDS011;47963;53.008;6.754;2022-11-03T15:30:23;10.75;;;3.03;;
62006;SDS011;47963;53.008;6.754;2022-11-03T15:32:49;11.95;;;3.45;;
62006;SDS011;47963;53.008;6.754;2022-11-03T15:35:15;11.07;;;3.00;;
62006;SDS011;47963;53.008;6.754;2022-11-03T15:37:40;13.38;;;3.92;;
62006;SDS011;47963;53.008;6.754;2022-11-03T15:40:06;13.75;;;3.38;;
62006;SDS011;47963;53.008;6.754;2022-11-03T15:42:34;14.23;;;3.70;;
62006;SDS011;47963;53.008;6.754;2022-11-03T15:45:00;12.38;;;3.15;;
62006;SDS011;47963;53.008;6.754;2022-11-03T15:47:26;15.88;;;4.50;;
62006;SDS011;47963;53.008;6.754;2022-11-03T15:49:52;16.13;;;5.20;;
62006;SDS011;47963;53.008;6.754;2022-11-03T15:52:17;23.33;;;10.32;;
62006;SDS011;47963;53.008;6.754;2022-11-03T15:54:43;20.38;;;9.55;;
62006;SDS011;47963;53.008;6.754;2022-11-03T15:57:08;18.45;;;8.48;;
62006;SDS011;47963;53.008;6.754;2022-11-03T15:59:34;14.85;;;4.85;;
62006;SDS011;47963;53.008;6.754;2022-11-03T16:02:00;14.80;;;4.85;;
62006;SDS011;47963;53.008;6.754;2022-11-03T16:04:26;12.88;;;4.78;;
62006;SDS011;47963;53.008;6.754;2022-11-03T16:06:51;16.55;;;6.07;;
62006;SDS011;47963;53.008;6.754;2022-11-03T16:09:17;16.45;;;5.65;;